sensor_id;sensor_type;location;lat;lon;timestamp;P1;durP1;ratioP1;P2;durP2;ratioP2
31676;SDS011;18385;51.572;6.578;2022-12-20T00:02:08;10.85;;;2.42;;
31676;SDS011;18385;51.572;6.578;2022-12-20T00:04:34;7.78;;;2.80;;
31676;SDS011;18385;51.572;6.578;2022-12-20T00:07:00;8.40;;;2.35;;
31676;SDS011;18385;51.572;6.578;2022-12-20T00:09:25;5.28;;;2.53;;
31676;SDS011;18385;51.572;6.578;2022-12-20T00:11:51;9.65;;;2.60;;
31676;SDS011;18385;51.572;6.578;2022-12-20T00:14:17;6.35;;;2.13;;
31676;SDS011;18385;51.572;6.578;2022-12-20T00:16:43;7.40;;;2.60;;
31676;SDS011;18385;51.572;6.578;2022-12-20T00:19:08;5.75;;;2.20;;
31676;SDS011;18385;51.572;6.578;2022-12-20T00:21:35;5.35;;;2.15;;
31676;SDS011;18385;51.572;6.578;2022-12-20T00:24:02;8.52;;;2.63;;
31676;SDS011;18385;51.572;6.578;2022-12-20T00:26:30;9.85;;;2.00;;
31676;SDS011;18385;51.572;6.578;2022-12-20T00:28:57;11.10;;;3.63;;
31676;SDS011;18385;51.572;6.578;2022-12-20T00:31:24;10.75;;;2.47;;
31676;SDS011;18385;51.572;6.578;2022-12-20T00:33:52;7.25;;;1.90;;
31676;SDS011;18385;51.572;6.578;2022-12-20T00:36:19;6.15;;;2.30;;
31676;SDS011;18385;51.572;6.578;2022-12-20T00:38:47;11.73;;;2.47;;
31676;SDS011;18385;51.572;6.578;2022-12-20T00:41:15;8.63;;;2.15;;
31676;SDS011;18385;51.572;6.578;2022-12-20T00:43:42;6.13;;;2.22;;
31676;SDS011;18385;51.572;6.578;2022-12-20T00:46:09;6.22;;;1.92;;
31676;SDS011;18385;51.572;6.578;2022-12-20T00:48:35;4.28;;;1.80;;
31676;SDS011;18385;51.572;6.578;2022-12-20T00:51:03;8.38;;;2.15;;
31676;SDS011;18385;51.572;6.578;2022-12-20T00:53:36;8.20;;;2.45;;
31676;SDS011;18385;51.572;6.578;2022-12-20T00:56:03;5.53;;;1.70;;
31676;SDS011;18385;51.572;6.578;2022-12-20T00:58:30;6.85;;;2.42;;
31676;SDS011;18385;51.572;6.578;2022-12-20T01:00:57;9.35;;;2.45;;
31676;SDS011;18385;51.572;6.578;2022-12-20T01:03:23;5.60;;;1.80;;
31676;SDS011;18385;51.572;6.578;2022-12-20T01:05:53;4.68;;;1.98;;
31676;SDS011;18385;51.572;6.578;2022-12-20T01:08:20;5.25;;;1.73;;
31676;SDS011;18385;51.572;6.578;2022-12-20T01:10:56;9.93;;;2.28;;
31676;SDS011;18385;51.572;6.578;2022-12-20T01:13:26;4.75;;;1.98;;
31676;SDS011;18385;51.572;6.578;2022-12-20T01:15:52;7.97;;;1.85;;
31676;SDS011;18385;51.572;6.578;2022-12-20T01:18:18;7.45;;;2.08;;
31676;SDS011;18385;51.572;6.578;2022-12-20T01:20:44;7.53;;;2.42;;
31676;SDS011;18385;51.572;6.578;2022-12-20T01:23:09;5.47;;;1.75;;
31676;SDS011;18385;51.572;6.578;2022-12-20T01:25:35;9.65;;;2.40;;
31676;SDS011;18385;51.572;6.578;2022-12-20T01:28:01;5.57;;;1.88;;
31676;SDS011;18385;51.572;6.578;2022-12-20T01:30:26;9.85;;;2.33;;
31676;SDS011;18385;51.572;6.578;2022-12-20T01:32:52;6.85;;;1.92;;
31676;SDS011;18385;51.572;6.578;2022-12-20T01:35:18;5.35;;;2.03;;
31676;SDS011;18385;51.572;6.578;2022-12-20T01:37:43;5.20;;;1.88;;
31676;SDS011;18385;51.572;6.578;2022-12-20T01:40:09;5.18;;;2.08;;
31676;SDS011;18385;51.572;6.578;2022-12-20T01:42:35;7.05;;;1.80;;
31676;SDS011;18385;51.572;6.578;2022-12-20T01:45:02;7.18;;;1.60;;
31676;SDS011;18385;51.572;6.578;2022-12-20T01:47:33;5.32;;;1.40;;
31676;SDS011;18385;51.572;6.578;2022-12-20T01:50:01;5.03;;;2.13;;
31676;SDS011;18385;51.572;6.578;2022-12-20T01:52:36;5.70;;;1.42;;
31676;SDS011;18385;51.572;6.578;2022-12-20T01:55:12;5.00;;;1.65;;
31676;SDS011;18385;51.572;6.578;2022-12-20T01:57:44;6.07;;;1.38;;
31676;SDS011;18385;51.572;6.578;2022-12-20T02:00:13;5.53;;;1.95;;
31676;SDS011;18385;51.572;6.578;2022-12-20T02:02:41;5.68;;;2.13;;
31676;SDS011;18385;51.572;6.578;2022-12-20T02:05:08;6.47;;;1.58;;
31676;SDS011;18385;51.572;6.578;2022-12-20T02:07:34;5.05;;;1.85;;
31676;SDS011;18385;51.572;6.578;2022-12-20T02:10:02;4.70;;;1.65;;
31676;SDS011;18385;51.572;6.578;2022-12-20T02:12:51;4.38;;;1.35;;
31676;SDS011;18385;51.572;6.578;2022-12-20T02:18:24;4.93;;;1.60;;
31676;SDS011;18385;51.572;6.578;2022-12-20T02:21:05;6.53;;;2.35;;
31676;SDS011;18385;51.572;6.578;2022-12-20T02:34:22;6.38;;;2.10;;
31676;SDS011;18385;51.572;6.578;2022-12-20T02:36:50;3.60;;;1.42;;
31676;SDS011;18385;51.572;6.578;2022-12-20T02:39:16;7.07;;;2.05;;
31676;SDS011;18385;51.572;6.578;2022-12-20T02:41:43;3.85;;;1.30;;
31676;SDS011;18385;51.572;6.578;2022-12-20T02:44:14;5.47;;;1.85;;
31676;SDS011;18385;51.572;6.578;2022-12-20T02:47:02;6.93;;;1.70;;
31676;SDS011;18385;51.572;6.578;2022-12-20T02:49:33;4.05;;;1.10;;
31676;SDS011;18385;51.572;6.578;2022-12-20T02:52:07;6.97;;;1.30;;
31676;SDS011;18385;51.572;6.578;2022-12-20T02:54:36;3.53;;;1.70;;
31676;SDS011;18385;51.572;6.578;2022-12-20T02:57:08;3.47;;;1.30;;
31676;SDS011;18385;51.572;6.578;2022-12-20T03:02:32;6.30;;;1.42;;
31676;SDS011;18385;51.572;6.578;2022-12-20T03:05:20;3.75;;;1.10;;
31676;SDS011;18385;51.572;6.578;2022-12-20T03:07:48;6.70;;;1.60;;
31676;SDS011;18385;51.572;6.578;2022-12-20T03:10:16;4.32;;;1.90;;
31676;SDS011;18385;51.572;6.578;2022-12-20T03:12:43;5.07;;;1.23;;
31676;SDS011;18385;51.572;6.578;2022-12-20T03:15:09;4.30;;;1.30;;
31676;SDS011;18385;51.572;6.578;2022-12-20T03:17:35;5.15;;;1.50;;
31676;SDS011;18385;51.572;6.578;2022-12-20T03:20:01;5.10;;;1.23;;
31676;SDS011;18385;51.572;6.578;2022-12-20T03:22:30;4.68;;;1.40;;
31676;SDS011;18385;51.572;6.578;2022-12-20T03:24:57;8.55;;;2.08;;
31676;SDS011;18385;51.572;6.578;2022-12-20T03:27:24;2.20;;;1.10;;
31676;SDS011;18385;51.572;6.578;2022-12-20T03:29:52;3.30;;;1.13;;
31676;SDS011;18385;51.572;6.578;2022-12-20T03:32:19;1.60;;;0.88;;
31676;SDS011;18385;51.572;6.578;2022-12-20T03:34:45;2.28;;;0.80;;
31676;SDS011;18385;51.572;6.578;2022-12-20T03:37:14;3.42;;;0.85;;
31676;SDS011;18385;51.572;6.578;2022-12-20T03:39:40;6.93;;;2.20;;
31676;SDS011;18385;51.572;6.578;2022-12-20T03:42:07;3.97;;;1.38;;
31676;SDS011;18385;51.572;6.578;2022-12-20T03:44:32;2.83;;;1.30;;
31676;SDS011;18385;51.572;6.578;2022-12-20T03:46:58;5.38;;;1.58;;
31676;SDS011;18385;51.572;6.578;2022-12-20T03:49:24;6.13;;;1.88;;
31676;SDS011;18385;51.572;6.578;2022-12-20T03:51:50;3.00;;;1.30;;
31676;SDS011;18385;51.572;6.578;2022-12-20T03:54:16;4.97;;;1.40;;
31676;SDS011;18385;51.572;6.578;2022-12-20T03:56:59;5.45;;;1.77;;
31676;SDS011;18385;51.572;6.578;2022-12-20T03:59:25;8.40;;;2.03;;
31676;SDS011;18385;51.572;6.578;2022-12-20T04:01:51;5.30;;;1.63;;
31676;SDS011;18385;51.572;6.578;2022-12-20T04:04:17;3.65;;;1.40;;
31676;SDS011;18385;51.572;6.578;2022-12-20T04:06:42;7.57;;;1.90;;
31676;SDS011;18385;51.572;6.578;2022-12-20T04:09:08;5.03;;;1.63;;
31676;SDS011;18385;51.572;6.578;2022-12-20T04:11:40;3.88;;;1.58;;
31676;SDS011;18385;51.572;6.578;2022-12-20T04:14:12;3.65;;;1.63;;
31676;SDS011;18385;51.572;6.578;2022-12-20T04:16:37;5.13;;;2.13;;
31676;SDS011;18385;51.572;6.578;2022-12-20T04:19:04;6.43;;;2.10;;
31676;SDS011;18385;51.572;6.578;2022-12-20T04:21:35;5.53;;;1.70;;
31676;SDS011;18385;51.572;6.578;2022-12-20T04:24:03;3.28;;;1.50;;
31676;SDS011;18385;51.572;6.578;2022-12-20T04:26:45;5.72;;;2.30;;
31676;SDS011;18385;51.572;6.578;2022-12-20T04:29:12;5.05;;;1.95;;
31676;SDS011;18385;51.572;6.578;2022-12-20T04:31:39;5.10;;;2.50;;
31676;SDS011;18385;51.572;6.578;2022-12-20T04:34:06;9.30;;;3.17;;
31676;SDS011;18385;51.572;6.578;2022-12-20T04:36:32;5.25;;;1.65;;
31676;SDS011;18385;51.572;6.578;2022-12-20T04:39:01;5.05;;;2.28;;
31676;SDS011;18385;51.572;6.578;2022-12-20T04:41:36;4.95;;;2.42;;
31676;SDS011;18385;51.572;6.578;2022-12-20T04:44:07;6.50;;;2.65;;
31676;SDS011;18385;51.572;6.578;2022-12-20T04:46:35;3.25;;;1.38;;
31676;SDS011;18385;51.572;6.578;2022-12-20T04:49:03;5.63;;;1.77;;
31676;SDS011;18385;51.572;6.578;2022-12-20T04:51:31;6.85;;;2.58;;
31676;SDS011;18385;51.572;6.578;2022-12-20T04:53:57;6.05;;;2.40;;
31676;SDS011;18385;51.572;6.578;2022-12-20T04:56:32;4.43;;;1.90;;
31676;SDS011;18385;51.572;6.578;2022-12-20T04:59:04;5.15;;;1.98;;
31676;SDS011;18385;51.572;6.578;2022-12-20T05:01:29;3.63;;;1.83;;
31676;SDS011;18385;51.572;6.578;2022-12-20T05:03:55;4.40;;;1.88;;
31676;SDS011;18385;51.572;6.578;2022-12-20T05:06:21;10.90;;;2.40;;
31676;SDS011;18385;51.572;6.578;2022-12-20T05:08:48;9.25;;;3.03;;
31676;SDS011;18385;51.572;6.578;2022-12-20T05:11:14;5.60;;;2.42;;
31676;SDS011;18385;51.572;6.578;2022-12-20T05:13:40;7.32;;;2.22;;
31676;SDS011;18385;51.572;6.578;2022-12-20T05:16:06;5.85;;;3.05;;
31676;SDS011;18385;51.572;6.578;2022-12-20T05:18:33;7.43;;;2.35;;
31676;SDS011;18385;51.572;6.578;2022-12-20T05:21:03;10.27;;;2.70;;
31676;SDS011;18385;51.572;6.578;2022-12-20T05:23:50;10.50;;;2.42;;
31676;SDS011;18385;51.572;6.578;2022-12-20T05:26:48;8.48;;;2.30;;
31676;SDS011;18385;51.572;6.578;2022-12-20T05:29:16;7.63;;;2.10;;
31676;SDS011;18385;51.572;6.578;2022-12-20T05:31:42;7.95;;;2.30;;
31676;SDS011;18385;51.572;6.578;2022-12-20T05:34:08;8.15;;;2.72;;
31676;SDS011;18385;51.572;6.578;2022-12-20T05:36:35;8.02;;;2.30;;
31676;SDS011;18385;51.572;6.578;2022-12-20T05:39:03;5.50;;;1.67;;
31676;SDS011;18385;51.572;6.578;2022-12-20T05:41:32;9.55;;;3.00;;
31676;SDS011;18385;51.572;6.578;2022-12-20T05:43:59;11.45;;;2.33;;
31676;SDS011;18385;51.572;6.578;2022-12-20T05:46:26;6.82;;;2.45;;
31676;SDS011;18385;51.572;6.578;2022-12-20T05:48:57;6.90;;;2.25;;
31676;SDS011;18385;51.572;6.578;2022-12-20T05:51:23;4.50;;;2.38;;
31676;SDS011;18385;51.572;6.578;2022-12-20T05:53:54;8.40;;;2.40;;
31676;SDS011;18385;51.572;6.578;2022-12-20T05:56:29;5.68;;;2.35;;
31676;SDS011;18385;51.572;6.578;2022-12-20T05:58:55;4.88;;;2.55;;
31676;SDS011;18385;51.572;6.578;2022-12-20T06:01:23;7.53;;;3.05;;
31676;SDS011;18385;51.572;6.578;2022-12-20T06:03:53;4.65;;;2.20;;
31676;SDS011;18385;51.572;6.578;2022-12-20T06:06:19;8.18;;;2.90;;
31676;SDS011;18385;51.572;6.578;2022-12-20T06:08:46;6.80;;;2.50;;
31676;SDS011;18385;51.572;6.578;2022-12-20T06:11:34;4.72;;;2.22;;
31676;SDS011;18385;51.572;6.578;2022-12-20T06:14:04;5.43;;;2.35;;
31676;SDS011;18385;51.572;6.578;2022-12-20T06:16:30;5.47;;;2.28;;
31676;SDS011;18385;51.572;6.578;2022-12-20T06:18:57;6.30;;;2.83;;
31676;SDS011;18385;51.572;6.578;2022-12-20T06:21:23;5.68;;;2.38;;
31676;SDS011;18385;51.572;6.578;2022-12-20T06:23:51;5.53;;;2.25;;
31676;SDS011;18385;51.572;6.578;2022-12-20T06:26:17;9.73;;;2.90;;
31676;SDS011;18385;51.572;6.578;2022-12-20T06:28:48;5.05;;;2.20;;
31676;SDS011;18385;51.572;6.578;2022-12-20T06:31:20;5.18;;;2.10;;
31676;SDS011;18385;51.572;6.578;2022-12-20T06:36:18;7.90;;;2.40;;
31676;SDS011;18385;51.572;6.578;2022-12-20T06:38:44;7.05;;;3.28;;
31676;SDS011;18385;51.572;6.578;2022-12-20T06:41:10;6.97;;;3.03;;
31676;SDS011;18385;51.572;6.578;2022-12-20T06:43:36;5.40;;;2.40;;
31676;SDS011;18385;51.572;6.578;2022-12-20T06:46:01;5.30;;;2.85;;
31676;SDS011;18385;51.572;6.578;2022-12-20T06:48:27;5.32;;;2.80;;
31676;SDS011;18385;51.572;6.578;2022-12-20T06:50:54;4.50;;;2.50;;
31676;SDS011;18385;51.572;6.578;2022-12-20T06:53:20;3.50;;;2.00;;
31676;SDS011;18385;51.572;6.578;2022-12-20T06:55:46;4.60;;;2.50;;
31676;SDS011;18385;51.572;6.578;2022-12-20T06:58:16;4.47;;;2.22;;
31676;SDS011;18385;51.572;6.578;2022-12-20T07:00:45;4.28;;;2.45;;
31676;SDS011;18385;51.572;6.578;2022-12-20T07:03:11;8.02;;;2.42;;
31676;SDS011;18385;51.572;6.578;2022-12-20T07:05:37;5.95;;;2.08;;
31676;SDS011;18385;51.572;6.578;2022-12-20T07:08:03;5.70;;;2.08;;
31676;SDS011;18385;51.572;6.578;2022-12-20T07:10:30;5.32;;;2.33;;
31676;SDS011;18385;51.572;6.578;2022-12-20T07:12:57;7.93;;;2.88;;
31676;SDS011;18385;51.572;6.578;2022-12-20T07:15:23;5.18;;;2.47;;
31676;SDS011;18385;51.572;6.578;2022-12-20T07:17:49;4.93;;;2.17;;
31676;SDS011;18385;51.572;6.578;2022-12-20T07:20:15;3.35;;;2.25;;
31676;SDS011;18385;51.572;6.578;2022-12-20T07:22:41;4.80;;;1.95;;
31676;SDS011;18385;51.572;6.578;2022-12-20T07:25:07;7.03;;;3.17;;
31676;SDS011;18385;51.572;6.578;2022-12-20T07:27:34;11.57;;;2.90;;
31676;SDS011;18385;51.572;6.578;2022-12-20T07:29:59;4.68;;;2.30;;
31676;SDS011;18385;51.572;6.578;2022-12-20T07:32:25;5.75;;;2.58;;
31676;SDS011;18385;51.572;6.578;2022-12-20T07:34:51;5.15;;;2.28;;
31676;SDS011;18385;51.572;6.578;2022-12-20T07:37:16;3.55;;;1.95;;
31676;SDS011;18385;51.572;6.578;2022-12-20T07:39:42;8.23;;;2.65;;
31676;SDS011;18385;51.572;6.578;2022-12-20T07:42:08;4.55;;;2.22;;
31676;SDS011;18385;51.572;6.578;2022-12-20T07:44:40;8.02;;;2.67;;
31676;SDS011;18385;51.572;6.578;2022-12-20T07:47:06;8.60;;;3.03;;
31676;SDS011;18385;51.572;6.578;2022-12-20T07:49:32;5.63;;;2.35;;
31676;SDS011;18385;51.572;6.578;2022-12-20T07:51:58;3.42;;;1.80;;
31676;SDS011;18385;51.572;6.578;2022-12-20T07:54:27;8.75;;;2.97;;
31676;SDS011;18385;51.572;6.578;2022-12-20T07:56:57;5.07;;;2.10;;
31676;SDS011;18385;51.572;6.578;2022-12-20T07:59:29;10.32;;;3.88;;
31676;SDS011;18385;51.572;6.578;2022-12-20T08:02:03;7.97;;;2.67;;
31676;SDS011;18385;51.572;6.578;2022-12-20T08:04:30;10.18;;;3.05;;
31676;SDS011;18385;51.572;6.578;2022-12-20T08:06:58;8.90;;;3.08;;
31676;SDS011;18385;51.572;6.578;2022-12-20T08:09:26;8.43;;;3.80;;
31676;SDS011;18385;51.572;6.578;2022-12-20T08:11:54;12.98;;;4.10;;
31676;SDS011;18385;51.572;6.578;2022-12-20T08:14:21;6.50;;;2.90;;
31676;SDS011;18385;51.572;6.578;2022-12-20T08:16:47;6.47;;;2.45;;
31676;SDS011;18385;51.572;6.578;2022-12-20T08:19:13;8.70;;;3.60;;
31676;SDS011;18385;51.572;6.578;2022-12-20T08:21:38;5.53;;;2.38;;
31676;SDS011;18385;51.572;6.578;2022-12-20T08:24:04;6.10;;;2.30;;
31676;SDS011;18385;51.572;6.578;2022-12-20T08:26:30;5.05;;;2.67;;
31676;SDS011;18385;51.572;6.578;2022-12-20T08:28:56;6.65;;;2.42;;
31676;SDS011;18385;51.572;6.578;2022-12-20T08:31:21;4.75;;;2.63;;
31676;SDS011;18385;51.572;6.578;2022-12-20T08:33:47;7.03;;;2.30;;
31676;SDS011;18385;51.572;6.578;2022-12-20T08:36:13;5.30;;;2.15;;
31676;SDS011;18385;51.572;6.578;2022-12-20T08:38:39;6.43;;;2.47;;
31676;SDS011;18385;51.572;6.578;2022-12-20T08:41:09;5.43;;;2.00;;
31676;SDS011;18385;51.572;6.578;2022-12-20T08:43:36;5.50;;;2.50;;
31676;SDS011;18385;51.572;6.578;2022-12-20T08:46:02;6.80;;;2.65;;
31676;SDS011;18385;51.572;6.578;2022-12-20T08:48:28;4.97;;;2.05;;
31676;SDS011;18385;51.572;6.578;2022-12-20T08:50:58;5.50;;;2.10;;
31676;SDS011;18385;51.572;6.578;2022-12-20T08:53:25;8.43;;;2.35;;
31676;SDS011;18385;51.572;6.578;2022-12-20T08:55:52;6.20;;;2.20;;
31676;SDS011;18385;51.572;6.578;2022-12-20T08:58:18;3.88;;;1.85;;
31676;SDS011;18385;51.572;6.578;2022-12-20T09:00:45;6.03;;;2.33;;
31676;SDS011;18385;51.572;6.578;2022-12-20T09:03:11;6.97;;;2.40;;
31676;SDS011;18385;51.572;6.578;2022-12-20T09:05:47;6.25;;;2.28;;
31676;SDS011;18385;51.572;6.578;2022-12-20T09:08:16;5.60;;;2.33;;
31676;SDS011;18385;51.572;6.578;2022-12-20T09:10:42;3.22;;;1.90;;
31676;SDS011;18385;51.572;6.578;2022-12-20T09:13:08;4.80;;;2.17;;
31676;SDS011;18385;51.572;6.578;2022-12-20T09:15:34;6.32;;;2.30;;
31676;SDS011;18385;51.572;6.578;2022-12-20T09:18:00;4.75;;;2.00;;
31676;SDS011;18385;51.572;6.578;2022-12-20T09:20:29;6.95;;;2.97;;
31676;SDS011;18385;51.572;6.578;2022-12-20T09:22:54;2.85;;;1.75;;
31676;SDS011;18385;51.572;6.578;2022-12-20T09:25:22;5.15;;;2.67;;
31676;SDS011;18385;51.572;6.578;2022-12-20T09:27:47;8.00;;;2.80;;
31676;SDS011;18385;51.572;6.578;2022-12-20T09:30:13;6.82;;;2.78;;
31676;SDS011;18385;51.572;6.578;2022-12-20T09:32:39;8.10;;;2.47;;
31676;SDS011;18385;51.572;6.578;2022-12-20T09:35:04;4.88;;;2.45;;
31676;SDS011;18385;51.572;6.578;2022-12-20T09:37:31;8.20;;;2.63;;
31676;SDS011;18385;51.572;6.578;2022-12-20T09:39:57;6.47;;;2.83;;
31676;SDS011;18385;51.572;6.578;2022-12-20T09:42:26;6.07;;;3.28;;
31676;SDS011;18385;51.572;6.578;2022-12-20T09:44:56;9.38;;;4.53;;
31676;SDS011;18385;51.572;6.578;2022-12-20T09:47:27;9.77;;;4.65;;
31676;SDS011;18385;51.572;6.578;2022-12-20T09:49:54;12.32;;;4.22;;
31676;SDS011;18385;51.572;6.578;2022-12-20T09:52:38;6.75;;;2.63;;
31676;SDS011;18385;51.572;6.578;2022-12-20T09:55:30;8.40;;;3.45;;
31676;SDS011;18385;51.572;6.578;2022-12-20T10:00:54;6.45;;;3.40;;
31676;SDS011;18385;51.572;6.578;2022-12-20T10:03:21;6.82;;;2.50;;
31676;SDS011;18385;51.572;6.578;2022-12-20T10:05:54;9.50;;;2.67;;
31676;SDS011;18385;51.572;6.578;2022-12-20T10:08:44;7.38;;;3.35;;
31676;SDS011;18385;51.572;6.578;2022-12-20T10:11:44;5.65;;;3.00;;
31676;SDS011;18385;51.572;6.578;2022-12-20T10:17:28;7.78;;;3.03;;
31676;SDS011;18385;51.572;6.578;2022-12-20T10:25:20;7.63;;;2.28;;
31676;SDS011;18385;51.572;6.578;2022-12-20T10:27:48;7.43;;;1.85;;
31676;SDS011;18385;51.572;6.578;2022-12-20T10:30:18;6.90;;;1.75;;
31676;SDS011;18385;51.572;6.578;2022-12-20T10:32:46;5.53;;;2.47;;
31676;SDS011;18385;51.572;6.578;2022-12-20T10:37:56;5.75;;;2.88;;
31676;SDS011;18385;51.572;6.578;2022-12-20T10:40:25;11.40;;;2.90;;
31676;SDS011;18385;51.572;6.578;2022-12-20T10:42:52;3.47;;;2.10;;
31676;SDS011;18385;51.572;6.578;2022-12-20T10:47:47;7.82;;;3.08;;
31676;SDS011;18385;51.572;6.578;2022-12-20T10:50:19;7.45;;;2.80;;
31676;SDS011;18385;51.572;6.578;2022-12-20T10:53:01;7.43;;;2.55;;
31676;SDS011;18385;51.572;6.578;2022-12-20T10:55:33;5.43;;;2.50;;
31676;SDS011;18385;51.572;6.578;2022-12-20T10:58:27;10.30;;;2.20;;
31676;SDS011;18385;51.572;6.578;2022-12-20T11:01:13;6.05;;;3.08;;
31676;SDS011;18385;51.572;6.578;2022-12-20T11:08:46;6.57;;;2.85;;
31676;SDS011;18385;51.572;6.578;2022-12-20T11:11:16;6.45;;;2.70;;
31676;SDS011;18385;51.572;6.578;2022-12-20T11:13:47;7.10;;;2.97;;
31676;SDS011;18385;51.572;6.578;2022-12-20T11:16:25;6.25;;;2.38;;
31676;SDS011;18385;51.572;6.578;2022-12-20T11:27:12;7.10;;;3.17;;
31676;SDS011;18385;51.572;6.578;2022-12-20T11:29:52;6.60;;;2.55;;
31676;SDS011;18385;51.572;6.578;2022-12-20T11:32:27;8.45;;;2.50;;
31676;SDS011;18385;51.572;6.578;2022-12-20T11:35:10;6.00;;;2.95;;
31676;SDS011;18385;51.572;6.578;2022-12-20T11:38:11;5.93;;;2.47;;
31676;SDS011;18385;51.572;6.578;2022-12-20T11:40:54;9.20;;;3.90;;
31676;SDS011;18385;51.572;6.578;2022-12-20T11:46:49;8.25;;;3.45;;
31676;SDS011;18385;51.572;6.578;2022-12-20T11:54:57;13.80;;;5.20;;
31676;SDS011;18385;51.572;6.578;2022-12-20T11:57:28;9.43;;;3.28;;
31676;SDS011;18385;51.572;6.578;2022-12-20T11:59:59;6.95;;;3.08;;
31676;SDS011;18385;51.572;6.578;2022-12-20T12:02:27;8.02;;;3.72;;
31676;SDS011;18385;51.572;6.578;2022-12-20T12:05:05;7.25;;;3.00;;
31676;SDS011;18385;51.572;6.578;2022-12-20T12:07:40;11.90;;;4.43;;
31676;SDS011;18385;51.572;6.578;2022-12-20T12:10:16;12.95;;;5.97;;
31676;SDS011;18385;51.572;6.578;2022-12-20T12:16:17;6.50;;;3.30;;
31676;SDS011;18385;51.572;6.578;2022-12-20T12:18:58;6.78;;;2.80;;
31676;SDS011;18385;51.572;6.578;2022-12-20T12:21:26;4.53;;;2.22;;
31676;SDS011;18385;51.572;6.578;2022-12-20T12:24:00;5.95;;;2.78;;
31676;SDS011;18385;51.572;6.578;2022-12-20T12:26:39;11.38;;;4.50;;
31676;SDS011;18385;51.572;6.578;2022-12-20T12:29:09;8.55;;;3.45;;
31676;SDS011;18385;51.572;6.578;2022-12-20T12:31:42;9.27;;;3.00;;
31676;SDS011;18385;51.572;6.578;2022-12-20T12:34:16;6.85;;;2.25;;
31676;SDS011;18385;51.572;6.578;2022-12-20T12:37:05;6.22;;;2.78;;
31676;SDS011;18385;51.572;6.578;2022-12-20T12:40:02;9.77;;;3.47;;
31676;SDS011;18385;51.572;6.578;2022-12-20T12:48:21;6.78;;;3.03;;
31676;SDS011;18385;51.572;6.578;2022-12-20T12:50:52;5.22;;;1.95;;
31676;SDS011;18385;51.572;6.578;2022-12-20T12:53:21;5.88;;;2.42;;
31676;SDS011;18385;51.572;6.578;2022-12-20T12:55:58;4.15;;;2.38;;
31676;SDS011;18385;51.572;6.578;2022-12-20T12:58:43;4.13;;;2.40;;
31676;SDS011;18385;51.572;6.578;2022-12-20T13:09:19;2.38;;;0.90;;
31676;SDS011;18385;51.572;6.578;2022-12-20T13:11:52;2.13;;;1.00;;
31676;SDS011;18385;51.572;6.578;2022-12-20T13:16:52;2.33;;;1.40;;
31676;SDS011;18385;51.572;6.578;2022-12-20T13:19:48;2.42;;;1.02;;
31676;SDS011;18385;51.572;6.578;2022-12-20T13:25:00;4.85;;;1.10;;
31676;SDS011;18385;51.572;6.578;2022-12-20T13:32:56;2.03;;;1.00;;
31676;SDS011;18385;51.572;6.578;2022-12-20T13:35:27;5.07;;;1.70;;
31676;SDS011;18385;51.572;6.578;2022-12-20T13:43:11;3.63;;;0.80;;
31676;SDS011;18385;51.572;6.578;2022-12-20T13:45:44;2.05;;;0.80;;
31676;SDS011;18385;51.572;6.578;2022-12-20T13:48:13;2.70;;;1.10;;
31676;SDS011;18385;51.572;6.578;2022-12-20T13:50:49;1.88;;;0.90;;
31676;SDS011;18385;51.572;6.578;2022-12-20T13:53:21;1.67;;;0.90;;
31676;SDS011;18385;51.572;6.578;2022-12-20T13:55:48;5.80;;;0.82;;
31676;SDS011;18385;51.572;6.578;2022-12-20T13:58:18;3.30;;;1.00;;
31676;SDS011;18385;51.572;6.578;2022-12-20T14:00:47;3.20;;;1.20;;
31676;SDS011;18385;51.572;6.578;2022-12-20T14:05:47;2.78;;;1.50;;
31676;SDS011;18385;51.572;6.578;2022-12-20T14:08:20;6.75;;;1.13;;
31676;SDS011;18385;51.572;6.578;2022-12-20T14:10:50;2.47;;;1.00;;
31676;SDS011;18385;51.572;6.578;2022-12-20T14:13:26;3.08;;;1.08;;
31676;SDS011;18385;51.572;6.578;2022-12-20T14:15:52;2.85;;;0.98;;
31676;SDS011;18385;51.572;6.578;2022-12-20T14:18:19;2.92;;;1.17;;
31676;SDS011;18385;51.572;6.578;2022-12-20T14:20:48;3.55;;;1.42;;
31676;SDS011;18385;51.572;6.578;2022-12-20T14:23:16;6.05;;;1.83;;
31676;SDS011;18385;51.572;6.578;2022-12-20T14:25:56;2.08;;;0.95;;
31676;SDS011;18385;51.572;6.578;2022-12-20T14:28:29;3.25;;;1.65;;
31676;SDS011;18385;51.572;6.578;2022-12-20T14:31:04;4.57;;;1.67;;
31676;SDS011;18385;51.572;6.578;2022-12-20T14:33:38;2.83;;;1.75;;
31676;SDS011;18385;51.572;6.578;2022-12-20T14:38:40;6.25;;;2.70;;
31676;SDS011;18385;51.572;6.578;2022-12-20T14:44:19;8.32;;;2.47;;
31676;SDS011;18385;51.572;6.578;2022-12-20T14:46:47;3.28;;;1.95;;
31676;SDS011;18385;51.572;6.578;2022-12-20T14:49:17;3.80;;;1.38;;
31676;SDS011;18385;51.572;6.578;2022-12-20T14:51:48;2.60;;;1.23;;
31676;SDS011;18385;51.572;6.578;2022-12-20T14:54:17;3.65;;;2.30;;
31676;SDS011;18385;51.572;6.578;2022-12-20T14:56:47;6.63;;;3.08;;
31676;SDS011;18385;51.572;6.578;2022-12-20T14:59:21;10.32;;;3.22;;
31676;SDS011;18385;51.572;6.578;2022-12-20T15:01:52;4.57;;;2.70;;
31676;SDS011;18385;51.572;6.578;2022-12-20T15:04:29;6.53;;;2.83;;
31676;SDS011;18385;51.572;6.578;2022-12-20T15:06:57;8.97;;;3.20;;
31676;SDS011;18385;51.572;6.578;2022-12-20T15:09:26;6.47;;;2.55;;
31676;SDS011;18385;51.572;6.578;2022-12-20T15:11:52;5.72;;;2.47;;
31676;SDS011;18385;51.572;6.578;2022-12-20T15:16:52;7.97;;;2.40;;
31676;SDS011;18385;51.572;6.578;2022-12-20T15:19:18;8.68;;;3.05;;
31676;SDS011;18385;51.572;6.578;2022-12-20T15:21:44;10.75;;;4.05;;
31676;SDS011;18385;51.572;6.578;2022-12-20T15:24:11;6.22;;;2.33;;
31676;SDS011;18385;51.572;6.578;2022-12-20T15:26:38;5.10;;;2.35;;
31676;SDS011;18385;51.572;6.578;2022-12-20T15:29:05;4.50;;;2.20;;
31676;SDS011;18385;51.572;6.578;2022-12-20T15:31:32;4.90;;;1.70;;
31676;SDS011;18385;51.572;6.578;2022-12-20T15:34:03;7.00;;;2.53;;
31676;SDS011;18385;51.572;6.578;2022-12-20T15:36:39;2.50;;;1.30;;
31676;SDS011;18385;51.572;6.578;2022-12-20T15:39:05;2.53;;;1.30;;
31676;SDS011;18385;51.572;6.578;2022-12-20T15:41:31;4.72;;;1.70;;
31676;SDS011;18385;51.572;6.578;2022-12-20T15:44:09;2.42;;;1.38;;
31676;SDS011;18385;51.572;6.578;2022-12-20T15:46:39;5.25;;;2.00;;
31676;SDS011;18385;51.572;6.578;2022-12-20T15:49:04;2.38;;;1.40;;
31676;SDS011;18385;51.572;6.578;2022-12-20T15:51:34;3.38;;;1.60;;
31676;SDS011;18385;51.572;6.578;2022-12-20T15:54:06;2.55;;;1.50;;
31676;SDS011;18385;51.572;6.578;2022-12-20T15:56:51;4.10;;;1.63;;
31676;SDS011;18385;51.572;6.578;2022-12-20T15:59:18;3.42;;;1.40;;
31676;SDS011;18385;51.572;6.578;2022-12-20T16:01:43;4.32;;;1.83;;
31676;SDS011;18385;51.572;6.578;2022-12-20T16:04:17;4.20;;;2.10;;
31676;SDS011;18385;51.572;6.578;2022-12-20T16:06:44;3.72;;;1.65;;
31676;SDS011;18385;51.572;6.578;2022-12-20T16:09:12;5.32;;;2.25;;
31676;SDS011;18385;51.572;6.578;2022-12-20T16:11:38;7.88;;;2.90;;
31676;SDS011;18385;51.572;6.578;2022-12-20T16:14:04;7.03;;;3.95;;
31676;SDS011;18385;51.572;6.578;2022-12-20T16:16:35;7.57;;;3.70;;
31676;SDS011;18385;51.572;6.578;2022-12-20T16:19:01;8.10;;;3.53;;
31676;SDS011;18385;51.572;6.578;2022-12-20T16:21:31;9.65;;;3.50;;
31676;SDS011;18385;51.572;6.578;2022-12-20T16:23:58;10.20;;;3.47;;
31676;SDS011;18385;51.572;6.578;2022-12-20T16:26:24;8.32;;;3.60;;
31676;SDS011;18385;51.572;6.578;2022-12-20T16:28:51;13.13;;;4.03;;
31676;SDS011;18385;51.572;6.578;2022-12-20T16:31:28;11.07;;;4.15;;
31676;SDS011;18385;51.572;6.578;2022-12-20T16:34:02;11.10;;;4.43;;
31676;SDS011;18385;51.572;6.578;2022-12-20T16:36:30;9.00;;;4.10;;
31676;SDS011;18385;51.572;6.578;2022-12-20T16:38:56;10.63;;;3.47;;
31676;SDS011;18385;51.572;6.578;2022-12-20T16:41:26;8.68;;;3.60;;
31676;SDS011;18385;51.572;6.578;2022-12-20T16:43:54;9.95;;;3.30;;